Time;durP1;ratioP1;P1;durP2;ratioP2;P2;SDS_P1;SDS_P2;PMS_P1;PMS_P2;Temp;Humidity;BMP_temperature;BMP_pressure;BME280_temperature;BME280_humidity;BME280_pressure;Samples;Min_cycle;Max_cycle;Signal;HPM_P1;HPM_P2
2022/11/27 00:01:17;;;;;;;95.38;40.97;;;4.90;99.90;;;;;;5088954;28;20124;-78
2022/11/27 00:03:43;;;;;;;83.65;36.80;;;5.00;99.90;;;;;;5089926;28;20031;-77
2022/11/27 00:06:18;;;;;;;;;;;5.00;99.90;;;;;;5090058;28;20036;-77
2022/11/27 00:08:45;;;;;;;81.22;36.58;;;5.00;99.90;;;;;;5089740;28;20073;-76
2022/11/27 00:11:20;;;;;;;94.22;37.95;;;5.10;99.90;;;;;;5088865;28;20092;-77
2022/11/27 00:13:46;;;;;;;85.93;35.60;;;5.10;99.90;;;;;;5090309;28;20047;-77
2022/11/27 00:16:13;;;;;;;94.45;35.60;;;5.10;99.90;;;;;;5091328;28;20017;-77
2022/11/27 00:18:39;;;;;;;91.53;36.47;;;5.10;99.90;;;;;;5088826;28;20028;-77
2022/11/27 00:21:09;;;;;;;102.35;37.50;;;5.20;99.90;;;;;;5090970;28;20108;-77
2022/11/27 00:23:35;;;;;;;106.05;36.80;;;5.20;99.90;;;;;;5089489;28;20047;-76
2022/11/27 00:26:01;;;;;;;;;;;5.10;99.90;;;;;;5091232;28;20119;-76
2022/11/27 00:28:27;;;;;;;95.38;36.22;;;5.10;99.90;;;;;;5089271;28;19953;-77
2022/11/27 00:30:56;;;;;;;;;;;5.10;99.90;;;;;;5091864;28;20040;-76
2022/11/27 00:33:22;;;;;;;93.47;35.53;;;5.20;99.90;;;;;;5089462;28;20339;-77
2022/11/27 00:35:47;;;;;;;;;;;5.10;99.90;;;;;;5090102;28;20032;-77
2022/11/27 00:38:13;;;;;;;82.68;35.30;;;5.10;99.90;;;;;;5091654;28;19912;-77
2022/11/27 00:40:38;;;;;;;;;;;5.10;99.90;;;;;;5090047;28;20040;-77
2022/11/27 00:43:04;;;;;;;86.68;36.00;;;5.20;99.90;;;;;;5091314;28;19928;-77
2022/11/27 00:45:29;;;;;;;;;;;5.10;99.90;;;;;;5092730;28;20085;-77
2022/11/27 00:47:55;;;;;;;96.93;36.17;;;5.10;99.90;;;;;;5091332;28;20306;-77
2022/11/27 00:50:20;;;;;;;;;;;5.10;99.90;;;;;;5090885;28;20036;-77
2022/11/27 00:52:46;;;;;;;97.05;34.58;;;5.20;99.90;;;;;;5092117;28;20424;-77
2022/11/27 00:55:12;;;;;;;;;;;5.10;99.90;;;;;;5093579;28;20502;-77
2022/11/27 00:57:37;;;;;;;88.68;34.72;;;5.10;99.90;;;;;;5091726;28;19908;-77
2022/11/27 01:00:04;;;;;;;;;;;5.10;99.90;;;;;;5088875;28;20035;-77
2022/11/27 01:02:30;;;;;;;93.30;34.95;;;5.10;99.90;;;;;;5087674;28;19908;-76
2022/11/27 01:04:55;;;;;;;;;;;5.10;99.90;;;;;;5088115;28;20427;-77
2022/11/27 01:07:21;;;;;;;73.93;30.58;;;5.10;99.90;;;;;;5087859;28;20352;-76
2022/11/27 01:09:46;;;;;;;;;;;5.10;99.90;;;;;;5086330;28;20040;-77
2022/11/27 01:12:12;;;;;;;93.72;35.60;;;5.20;99.90;;;;;;5086232;28;19915;-77
2022/11/27 01:14:37;;;;;;;;;;;5.20;99.90;;;;;;5086608;28;20123;-77
2022/11/27 01:17:03;;;;;;;141.43;42.95;;;5.10;99.90;;;;;;5087004;28;19914;-77
2022/11/27 01:19:28;;;;;;;;;;;5.10;99.90;;;;;;5086937;28;20036;-77
2022/11/27 01:21:54;;;;;;;135.27;43.33;;;5.10;99.90;;;;;;5087102;28;19912;-77
2022/11/27 01:24:20;;;;;;;;;;;5.10;99.90;;;;;;5088000;28;20064;-77
2022/11/27 01:26:45;;;;;;;159.40;44.33;;;5.10;99.90;;;;;;5085936;28;19945;-76
2022/11/27 01:29:11;;;;;;;;;;;5.10;99.90;;;;;;5087368;28;20043;-77
2022/11/27 01:31:36;;;;;;;132.13;42.42;;;5.10;99.90;;;;;;5087189;28;19907;-77
2022/11/27 01:34:03;;;;;;;;;;;5.10;99.90;;;;;;5086550;28;20366;-77
2022/11/27 01:36:30;;;;;;;125.90;43.05;;;5.10;99.90;;;;;;5087008;28;19989;-77
2022/11/27 01:38:56;;;;;;;124.38;40.67;;;5.10;99.90;;;;;;5085992;28;20050;-77
2022/11/27 01:41:48;;;;;;;;;;;5.20;99.90;;;;;;5086277;28;20497;-77
2022/11/27 01:44:23;;;;;;;122.78;40.50;;;5.10;99.90;;;;;;5084064;28;19924;-77
2022/11/27 01:47:06;;;;;;;145.48;42.38;;;5.10;99.90;;;;;;5087369;28;20064;-76
2022/11/27 01:49:39;;;;;;;143.73;42.15;;;5.20;99.90;;;;;;5086776;28;20027;-78
2022/11/27 01:52:12;;;;;;;125.10;41.13;;;5.20;99.90;;;;;;5086582;28;20520;-76
2022/11/27 01:54:54;;;;;;;141.95;44.63;;;5.10;99.90;;;;;;5086094;28;20032;-77
2022/11/27 01:57:29;;;;;;;169.95;41.92;;;5.10;99.90;;;;;;5087232;28;20020;-76
2022/11/27 01:59:58;;;;;;;137.18;41.15;;;5.20;99.90;;;;;;5085963;28;20151;-76
2022/11/27 02:02:24;;;;;;;149.07;42.80;;;5.10;99.90;;;;;;5086247;28;20067;-77
2022/11/27 02:04:50;;;;;;;;;;;5.10;99.90;;;;;;5086352;28;20177;-76
2022/11/27 02:07:16;;;;;;;190.45;45.40;;;5.10;99.90;;;;;;5087059;28;19915;-76
2022/11/27 02:09:41;;;;;;;;;;;5.10;99.90;;;;;;5091698;28;20032;-77
2022/11/27 02:12:23;;;;;;;323.70;49.50;;;5.00;99.90;;;;;;5090427;28;19923;-77
2022/11/27 02:14:54;;;;;;;370.50;50.33;;;5.00;99.90;;;;;;5092514;28;20077;-76
2022/11/27 02:18:01;;;;;;;218.02;50.92;;;5.10;99.90;;;;;;5091194;28;20123;-77
2022/11/27 02:20:49;;;;;;;622.53;67.43;;;5.10;99.90;;;;;;5051885;28;20031;-76
2022/11/27 02:23:33;;;;;;;295.17;52.47;;;5.10;99.90;;;;;;5091194;28;20044;-76
2022/11/27 02:26:29;;;;;;;400.42;57.33;;;5.00;99.90;;;;;;5090400;28;20683;-77
2022/11/27 02:29:01;;;;;;;369.00;55.88;;;5.00;99.90;;;;;;5090812;28;20051;-76
2022/11/27 02:31:35;;;;;;;450.63;60.67;;;5.10;99.90;;;;;;5090251;28;20052;-77
2022/11/27 02:34:11;;;;;;;469.15;56.35;;;5.10;99.90;;;;;;5090683;28;20028;-77
2022/11/27 02:36:42;;;;;;;353.15;54.83;;;5.20;99.90;;;;;;5092027;28;20028;-77
2022/11/27 02:39:16;;;;;;;250.27;51.17;;;5.10;99.90;;;;;;5090929;28;20032;-77
2022/11/27 02:42:05;;;;;;;409.60;58.97;;;5.10;99.90;;;;;;5091474;28;20055;-77
2022/11/27 02:44:35;;;;;;;465.00;58.47;;;5.10;99.90;;;;;;5092129;28;20032;-77
2022/11/27 02:47:03;;;;;;;430.38;55.63;;;5.10;99.90;;;;;;5091671;28;20032;-77
2022/11/27 02:49:30;;;;;;;380.55;53.75;;;5.10;99.90;;;;;;5091735;28;20091;-77
2022/11/27 02:51:58;;;;;;;464.10;59.45;;;5.10;99.90;;;;;;5092653;28;20036;-76
2022/11/27 02:54:27;;;;;;;536.80;62.65;;;5.10;99.90;;;;;;5092142;28;20032;-77
2022/11/27 02:56:55;;;;;;;379.35;54.28;;;5.10;99.90;;;;;;5093240;28;20055;-77
2022/11/27 02:59:23;;;;;;;467.88;57.08;;;5.10;99.90;;;;;;5092315;28;20108;-77
2022/11/27 03:01:54;;;;;;;561.15;82.40;;;5.10;99.90;;;;;;5093468;28;20027;-77
2022/11/27 03:04:31;;;;;;;440.83;57.95;;;5.00;99.90;;;;;;5093097;28;20081;-77
2022/11/27 03:07:02;;;;;;;367.63;52.55;;;5.10;99.90;;;;;;5093328;28;20024;-76
2022/11/27 03:09:41;;;;;;;459.65;57.25;;;5.00;99.90;;;;;;5092459;28;20052;-76
2022/11/27 03:12:08;;;;;;;538.92;58.13;;;5.10;99.90;;;;;;5092736;28;20030;-77
2022/11/27 03:14:36;;;;;;;395.23;51.38;;;5.00;99.90;;;;;;5092236;28;20034;-77
2022/11/27 03:17:10;;;;;;;480.27;61.17;;;5.00;99.90;;;;;;5093778;28;20073;-77
2022/11/27 03:19:44;;;;;;;456.77;58.33;;;5.00;99.90;;;;;;5093394;28;20107;-77
2022/11/27 03:22:10;;;;;;;425.88;54.00;;;5.00;99.90;;;;;;5091215;28;20031;-77
2022/11/27 03:24:36;;;;;;;;;;;5.10;99.90;;;;;;5088859;28;20036;-76
2022/11/27 03:27:03;;;;;;;224.48;46.53;;;5.10;99.90;;;;;;5089235;28;19908;-77
2022/11/27 03:30:09;;;;;;;285.77;47.80;;;5.10;99.90;;;;;;5087754;28;20559;-77
2022/11/27 03:32:35;;;;;;;368.20;55.92;;;5.10;99.90;;;;;;5065889;28;20033;-76
2022/11/27 03:35:01;;;;;;;;;;;5.10;99.90;;;;;;5066817;28;20553;-77
2022/11/27 03:37:27;;;;;;;341.40;59.75;;;5.00;99.90;;;;;;5065960;28;19908;-76
2022/11/27 03:39:53;;;;;;;;;;;5.00;99.90;;;;;;5088492;28;20115;-77
2022/11/27 03:42:30;;;;;;;320.17;56.40;;;5.00;99.90;;;;;;5088648;28;20304;-77
2022/11/27 03:45:15;;;;;;;273.17;55.08;;;5.00;99.90;;;;;;5087987;28;20032;-77
2022/11/27 03:48:05;;;;;;;260.75;48.30;;;5.00;99.90;;;;;;5087126;28;20034;-77
2022/11/27 03:50:49;;;;;;;214.02;44.80;;;5.10;99.90;;;;;;5087640;28;20065;-77
2022/11/27 03:53:28;;;;;;;192.00;48.30;;;5.10;99.90;;;;;;5088084;28;20059;-77
2022/11/27 03:56:05;;;;;;;232.57;52.63;;;5.10;99.90;;;;;;5087931;28;20068;-77
2022/11/27 03:58:44;;;;;;;202.32;46.95;;;5.10;99.90;;;;;;5087996;28;20024;-77
2022/11/27 04:01:14;;;;;;;179.00;43.40;;;5.10;99.90;;;;;;5087222;28;20081;-77
2022/11/27 04:03:39;;;;;;;164.80;42.85;;;5.10;99.90;;;;;;5087623;28;20046;-76
2022/11/27 04:06:05;;;;;;;;;;;5.10;99.90;;;;;;5087999;28;20040;-77
2022/11/27 04:08:31;;;;;;;153.60;40.45;;;5.10;99.90;;;;;;5089107;28;19914;-77
2022/11/27 04:10:56;;;;;;;;;;;5.10;99.90;;;;;;5088249;28;20036;-77
2022/11/27 04:13:22;;;;;;;143.55;38.38;;;5.10;99.90;;;;;;5088981;28;19915;-77
2022/11/27 04:15:47;;;;;;;;;;;5.10;99.90;;;;;;5090983;28;20047;-77
2022/11/27 04:18:13;;;;;;;123.65;37.15;;;5.10;99.90;;;;;;5087718;28;19908;-77
2022/11/27 04:20:38;;;;;;;;;;;5.10;99.90;;;;;;5089540;28;20048;-76
2022/11/27 04:23:04;;;;;;;149.55;41.45;;;5.10;99.90;;;;;;5087529;28;19912;-77
2022/11/27 04:25:30;;;;;;;;;;;5.20;99.90;;;;;;5088090;28;20066;-77
2022/11/27 04:27:55;;;;;;;166.82;48.75;;;5.20;99.90;;;;;;5087714;28;19908;-77
2022/11/27 04:30:21;;;;;;;;;;;5.10;99.90;;;;;;5088664;28;20043;-77
2022/11/27 04:32:47;;;;;;;179.48;55.55;;;5.10;99.90;;;;;;5087190;28;19904;-77
2022/11/27 04:35:13;;;;;;;;;;;5.20;99.90;;;;;;5090246;28;20034;-77
2022/11/27 04:37:38;;;;;;;203.43;62.58;;;5.10;99.90;;;;;;5088247;28;19904;-78
2022/11/27 04:40:04;;;;;;;;;;;5.10;99.90;;;;;;5090352;28;20020;-77
2022/11/27 04:42:30;;;;;;;138.73;40.05;;;5.10;99.90;;;;;;5090611;28;20411;-77
2022/11/27 04:44:55;;;;;;;;;;;5.10;99.90;;;;;;5090251;28;20040;-77
2022/11/27 04:47:21;;;;;;;206.02;48.03;;;5.10;99.90;;;;;;5088555;28;19907;-77
2022/11/27 04:49:47;;;;;;;;;;;5.20;99.90;;;;;;5090128;28;20400;-77
2022/11/27 04:52:12;;;;;;;170.82;48.63;;;5.10;99.90;;;;;;5090433;28;19962;-77
2022/11/27 04:54:38;;;;;;;;;;;5.10;99.90;;;;;;5090475;28;20031;-77
2022/11/27 04:57:03;;;;;;;179.45;46.83;;;5.20;99.90;;;;;;5089344;28;19911;-78
2022/11/27 04:59:29;;;;;;;;;;;5.10;99.90;;;;;;5089648;28;20031;-78
2022/11/27 05:01:55;;;;;;;136.05;45.58;;;5.10;99.90;;;;;;5089168;28;19912;-77
2022/11/27 05:04:20;;;;;;;;;;;5.10;99.90;;;;;;5089835;28;20036;-77
2022/11/27 05:06:46;;;;;;;221.00;49.42;;;5.10;99.90;;;;;;5088376;28;19912;-76
2022/11/27 05:09:11;;;;;;;;;;;5.10;99.90;;;;;;5089180;28;20115;-77
2022/11/27 05:11:37;;;;;;;216.43;57.15;;;5.10;99.90;;;;;;5090057;28;20003;-78
2022/11/27 05:14:15;;;;;;;;;;;5.10;99.90;;;;;;5090536;28;20043;-78
2022/11/27 05:16:50;;;;;;;297.55;56.55;;;5.10;99.90;;;;;;5089842;28;19946;-78
2022/11/27 05:19:17;;;;;;;327.52;57.60;;;5.10;99.90;;;;;;5089035;28;20494;-78
2022/11/27 05:21:44;;;;;;;270.02;49.80;;;5.20;99.90;;;;;;5089673;28;20390;-78
2022/11/27 05:24:11;;;;;;;459.58;70.15;;;5.10;99.90;;;;;;5090263;28;20069;-78
2022/11/27 05:26:37;;;;;;;264.60;54.15;;;5.20;99.90;;;;;;5089350;28;20386;-77
2022/11/27 05:29:03;;;;;;;391.08;61.08;;;5.20;99.90;;;;;;5088986;28;20185;-78
2022/11/27 05:31:29;;;;;;;282.17;48.65;;;5.10;99.90;;;;;;5090908;28;20028;-78
2022/11/27 05:33:55;;;;;;;;;;;5.20;99.90;;;;;;5089991;28;20065;-78
2022/11/27 05:36:20;;;;;;;336.05;46.20;;;5.20;99.90;;;;;;5091710;28;19908;-77
2022/11/27 05:38:46;;;;;;;;;;;5.20;99.90;;;;;;5091960;28;20040;-78
2022/11/27 05:41:11;;;;;;;371.67;54.05;;;5.20;99.90;;;;;;5090370;28;19961;-77
2022/11/27 05:43:37;;;;;;;;;;;5.10;99.90;;;;;;5090850;28;20056;-76
2022/11/27 05:46:07;;;;;;;331.05;44.58;;;5.10;99.90;;;;;;5090476;28;19916;-77
2022/11/27 05:48:34;;;;;;;317.45;43.75;;;5.00;99.90;;;;;;5087013;28;20039;-77
2022/11/27 05:50:59;;;;;;;225.70;42.33;;;5.10;99.90;;;;;;5085882;28;20036;-76
2022/11/27 05:53:25;;;;;;;;;;;5.20;99.90;;;;;;5086115;28;20085;-77
2022/11/27 05:55:51;;;;;;;338.90;44.55;;;5.10;99.90;;;;;;5086059;28;20402;-77
2022/11/27 05:58:16;;;;;;;;;;;5.00;99.90;;;;;;5086201;28;20124;-76
2022/11/27 06:00:42;;;;;;;335.33;52.30;;;5.00;99.90;;;;;;5085714;28;19908;-76
2022/11/27 06:03:07;;;;;;;;;;;5.00;99.90;;;;;;5085950;28;20488;-76
2022/11/27 06:05:37;;;;;;;289.85;48.22;;;5.00;99.90;;;;;;5085533;28;20268;-77
2022/11/27 06:08:02;;;;;;;443.60;58.15;;;4.90;99.90;;;;;;5086763;28;20519;-77
2022/11/27 06:10:28;;;;;;;;;;;4.90;99.90;;;;;;5085996;28;20028;-78
2022/11/27 06:12:54;;;;;;;206.27;48.53;;;5.00;99.90;;;;;;5085608;28;19912;-77
2022/11/27 06:15:20;;;;;;;260.30;50.47;;;4.90;99.90;;;;;;5085042;28;20020;-77
2022/11/27 06:17:48;;;;;;;425.85;60.40;;;5.00;99.90;;;;;;5085221;28;20024;-77
2022/11/27 06:20:13;;;;;;;319.20;47.63;;;5.00;99.90;;;;;;5086875;28;20036;-76
2022/11/27 06:22:39;;;;;;;;;;;5.00;99.90;;;;;;5086210;28;20020;-76
2022/11/27 06:25:05;;;;;;;255.77;50.28;;;5.10;99.90;;;;;;5086880;28;20037;-77
2022/11/27 06:27:36;;;;;;;;;;;5.00;99.90;;;;;;5086353;28;20025;-77
2022/11/27 06:30:04;;;;;;;275.15;54.28;;;5.00;99.90;;;;;;5086143;28;19904;-77
2022/11/27 06:32:29;;;;;;;299.13;49.22;;;5.00;99.90;;;;;;5087201;28;20028;-77
2022/11/27 06:34:55;;;;;;;;;;;5.00;99.90;;;;;;5086093;28;20404;-77
2022/11/27 06:37:20;;;;;;;225.25;48.05;;;5.00;99.90;;;;;;5085913;28;19908;-76
2022/11/27 06:39:49;;;;;;;;;;;5.00;99.90;;;;;;5086075;28;20060;-76
2022/11/27 06:42:14;;;;;;;274.77;52.08;;;4.90;99.90;;;;;;5086629;28;19912;-76
2022/11/27 06:44:40;;;;;;;;;;;5.00;99.90;;;;;;5087582;28;20429;-77
2022/11/27 06:47:06;;;;;;;194.32;40.92;;;5.00;99.90;;;;;;5086932;28;20356;-77
2022/11/27 06:49:32;;;;;;;339.10;50.50;;;5.00;99.90;;;;;;5086493;28;20366;-77
2022/11/27 06:51:58;;;;;;;;;;;5.00;99.90;;;;;;5086245;28;20100;-77
2022/11/27 06:54:24;;;;;;;222.77;48.53;;;5.00;99.90;;;;;;5088602;28;19908;-77
2022/11/27 06:56:50;;;;;;;;;;;5.00;99.90;;;;;;5091896;28;20036;-77
2022/11/27 06:59:16;;;;;;;174.65;43.28;;;5.00;99.90;;;;;;5091774;28;19912;-78
2022/11/27 07:01:42;;;;;;;226.00;58.25;;;5.00;99.90;;;;;;5089468;28;20055;-77
2022/11/27 07:04:09;;;;;;;;;;;5.10;99.90;;;;;;5091393;28;20063;-77
2022/11/27 07:06:35;;;;;;;162.73;48.92;;;5.00;99.90;;;;;;5089416;28;19912;-76
2022/11/27 07:09:00;;;;;;;;;;;5.00;99.90;;;;;;5090232;28;20027;-77
2022/11/27 07:11:28;;;;;;;284.38;65.88;;;5.00;99.90;;;;;;5091228;28;19910;-77
2022/11/27 07:13:56;;;;;;;251.38;52.20;;;5.10;99.90;;;;;;5090149;28;20077;-77
2022/11/27 07:16:23;;;;;;;167.50;36.30;;;5.10;99.90;;;;;;5090710;28;20035;-76
2022/11/27 07:18:55;;;;;;;233.20;58.58;;;5.10;99.90;;;;;;5091209;28;20020;-77
2022/11/27 07:21:20;;;;;;;244.10;65.07;;;5.10;99.90;;;;;;5090192;28;20036;-76
2022/11/27 07:23:46;;;;;;;;;;;5.10;99.90;;;;;;5091780;28;20031;-77
2022/11/27 07:26:14;;;;;;;292.55;77.22;;;5.10;99.90;;;;;;5091031;28;19916;-77
2022/11/27 07:28:42;;;;;;;218.10;61.42;;;5.10;99.90;;;;;;5091696;28;20035;-77
2022/11/27 07:31:09;;;;;;;215.43;65.32;;;5.10;99.90;;;;;;5090921;28;20052;-77
2022/11/27 07:33:35;;;;;;;156.73;52.78;;;5.10;99.90;;;;;;5091376;28;20080;-76
2022/11/27 07:36:02;;;;;;;;;;;5.10;99.90;;;;;;5090604;28;20028;-76
2022/11/27 07:38:28;;;;;;;146.57;41.83;;;5.10;99.90;;;;;;5091699;28;20120;-78
2022/11/27 07:40:53;;;;;;;;;;;5.10;99.90;;;;;;5091077;28;20497;-76
2022/11/27 07:43:19;;;;;;;124.78;37.53;;;5.10;99.90;;;;;;5091675;28;19927;-77
2022/11/27 07:45:45;;;;;;;;;;;5.20;99.90;;;;;;5090811;28;20520;-77
2022/11/27 07:48:11;;;;;;;113.53;40.40;;;5.10;99.90;;;;;;5092159;28;19954;-77
2022/11/27 07:50:38;;;;;;;;;;;5.10;99.90;;;;;;5091403;28;20386;-77
2022/11/27 07:53:03;;;;;;;136.88;51.63;;;5.30;99.90;;;;;;5092374;28;19908;-77
2022/11/27 07:55:29;;;;;;;;;;;5.10;99.90;;;;;;5092574;28;20043;-76
2022/11/27 07:57:54;;;;;;;124.47;48.58;;;5.20;99.90;;;;;;5091987;28;19929;-76
2022/11/27 08:00:20;;;;;;;;;;;5.20;99.90;;;;;;5091411;28;20032;-76
2022/11/27 08:02:45;;;;;;;164.07;52.60;;;5.20;99.90;;;;;;5091287;28;19912;-77
2022/11/27 08:05:11;;;;;;;;;;;5.20;99.90;;;;;;5091564;28;20126;-76
2022/11/27 08:07:36;;;;;;;149.05;38.13;;;5.30;99.90;;;;;;5092209;28;19914;-77
2022/11/27 08:10:02;;;;;;;;;;;5.40;99.90;;;;;;5094209;28;20032;-77
2022/11/27 08:12:28;;;;;;;126.55;36.15;;;5.40;99.90;;;;;;5088957;28;19914;-76
2022/11/27 08:14:53;;;;;;;;;;;5.40;99.90;;;;;;5088955;28;20524;-77
2022/11/27 08:17:19;;;;;;;118.03;35.38;;;5.40;99.90;;;;;;5087511;28;20006;-77
2022/11/27 08:19:44;;;;;;;;;;;5.50;99.90;;;;;;5087170;28;20428;-77
2022/11/27 08:22:15;;;;;;;103.90;34.08;;;5.50;99.90;;;;;;5086666;28;19911;-76
2022/11/27 08:24:41;;;;;;;115.93;34.55;;;5.50;99.90;;;;;;5086733;28;20093;-76
2022/11/27 08:27:10;;;;;;;;;;;5.50;99.90;;;;;;5088942;28;20028;-77
2022/11/27 08:29:36;;;;;;;84.05;24.13;;;5.40;99.90;;;;;;5087757;28;19912;-77
2022/11/27 08:32:02;;;;;;;76.10;23.02;;;5.40;99.90;;;;;;5087062;28;20412;-77
2022/11/27 08:34:28;;;;;;;;;;;5.50;99.90;;;;;;5088457;28;20058;-78
2022/11/27 08:36:53;;;;;;;81.07;24.63;;;5.60;99.90;;;;;;5086573;28;19959;-76
2022/11/27 08:39:19;;;;;;;;;;;5.50;99.90;;;;;;5087205;28;20063;-77
2022/11/27 08:41:44;;;;;;;83.78;30.48;;;5.40;99.90;;;;;;5087206;28;19914;-77
2022/11/27 08:44:10;;;;;;;;;;;5.40;99.90;;;;;;5087838;28;20538;-76
2022/11/27 08:46:35;;;;;;;92.40;23.63;;;5.40;99.90;;;;;;5086772;28;20300;-77
2022/11/27 08:49:01;;;;;;;;;;;5.30;99.90;;;;;;5087546;28;20036;-77
2022/11/27 08:51:27;;;;;;;66.72;21.85;;;5.30;99.90;;;;;;5088139;28;20403;-76
2022/11/27 08:53:52;;;;;;;;;;;5.40;99.90;;;;;;5086752;28;20035;-77
2022/11/27 08:56:21;;;;;;;45.85;17.67;;;5.30;99.90;;;;;;5088432;28;19908;-76
2022/11/27 08:58:48;;;;;;;58.65;21.83;;;5.40;99.90;;;;;;5088367;28;20503;-77
2022/11/27 09:01:18;;;;;;;88.13;27.27;;;5.30;99.90;;;;;;5086372;28;20028;-77
2022/11/27 09:03:43;;;;;;;71.72;25.83;;;5.30;99.90;;;;;;5086465;28;20088;-76
2022/11/27 09:06:10;;;;;;;;;;;5.30;99.90;;;;;;5088270;28;20036;-77
2022/11/27 09:08:40;;;;;;;52.33;21.70;;;5.30;99.90;;;;;;5086997;28;20011;-77
2022/11/27 09:11:06;;;;;;;61.28;24.95;;;5.40;99.90;;;;;;5087692;28;20082;-77
2022/11/27 09:13:31;;;;;;;;;;;5.40;99.90;;;;;;5088088;28;20059;-76
2022/11/27 09:15:57;;;;;;;74.25;31.20;;;5.30;99.90;;;;;;5088096;28;19957;-76
2022/11/27 09:18:23;;;;;;;;;;;5.30;99.90;;;;;;5086066;28;20107;-77
2022/11/27 09:20:56;;;;;;;102.63;44.08;;;5.30;99.90;;;;;;5086461;28;19908;-76
2022/11/27 09:23:22;;;;;;;182.82;63.40;;;5.40;99.90;;;;;;5088408;28;20232;-77
2022/11/27 09:25:48;;;;;;;;;;;5.40;99.90;;;;;;5087319;28;20132;-76
2022/11/27 09:28:14;;;;;;;70.75;28.08;;;5.40;99.90;;;;;;5087558;28;19908;-77
2022/11/27 09:30:39;;;;;;;;;;;5.40;99.90;;;;;;5088481;28;20024;-76
2022/11/27 09:33:05;;;;;;;40.78;17.65;;;5.30;99.90;;;;;;5087891;28;19908;-76
2022/11/27 09:35:31;;;;;;;;;;;5.50;99.90;;;;;;5087856;28;20095;-76
2022/11/27 09:37:56;;;;;;;47.15;20.45;;;5.40;99.90;;;;;;5088855;28;19904;-76
2022/11/27 09:40:22;;;;;;;;;;;5.40;99.90;;;;;;5087348;28;20475;-76
2022/11/27 09:43:03;;;;;;;71.35;29.48;;;5.50;99.90;;;;;;5086533;28;20016;-76
2022/11/27 09:45:29;;;;;;;39.63;19.95;;;5.50;99.90;;;;;;5088668;28;20061;-77
2022/11/27 09:48:03;;;;;;;42.20;21.85;;;5.50;99.90;;;;;;5087685;28;20047;-76
2022/11/27 09:50:48;;;;;;;35.55;18.30;;;5.50;99.90;;;;;;5088655;28;20038;-77
2022/11/27 09:53:32;;;;;;;65.43;33.50;;;5.50;99.90;;;;;;5087532;28;20698;-77
2022/11/27 09:56:02;;;;;;;33.22;16.52;;;5.50;99.90;;;;;;5088403;28;20035;-77
2022/11/27 09:59:02;;;;;;;53.33;26.85;;;5.60;99.90;;;;;;5086406;28;20067;-77
2022/11/27 10:01:30;;;;;;;68.72;35.75;;;5.60;99.90;;;;;;5088566;28;20032;-77
2022/11/27 10:03:56;;;;;;;36.97;17.67;;;5.60;99.90;;;;;;5087923;28;20092;-77
2022/11/27 10:06:30;;;;;;;;;;;5.60;99.90;;;;;;5087432;28;20127;-77
2022/11/27 10:09:11;;;;;;;43.35;20.75;;;5.70;99.90;;;;;;5088169;28;19911;-77
2022/11/27 10:11:58;;;;;;;42.92;21.00;;;5.70;99.90;;;;;;5088203;28;20024;-76
2022/11/27 10:14:27;;;;;;;35.55;18.35;;;5.60;99.90;;;;;;5088850;28;20523;-76
2022/11/27 10:17:14;;;;;;;51.13;25.90;;;5.60;99.90;;;;;;5088394;28;20118;-76
2022/11/27 10:19:46;;;;;;;;;;;5.70;99.90;;;;;;5088665;28;20032;-76
2022/11/27 10:22:21;;;;;;;45.80;21.58;;;5.60;99.90;;;;;;5090321;28;19908;-76
2022/11/27 10:25:18;;;;;;;122.57;43.07;;;5.70;99.90;;;;;;5090784;28;20031;-76
2022/11/27 10:27:55;;;;;;;122.35;78.95;;;5.70;99.90;;;;;;5088890;28;20043;-77
2022/11/27 10:30:21;;;;;;;87.47;40.92;;;5.70;99.90;;;;;;5094447;28;20028;-76
2022/11/27 10:32:48;;;;;;;;;;;5.60;99.90;;;;;;5094497;28;20060;-76
2022/11/27 10:35:24;;;;;;;121.50;40.70;;;5.70;99.90;;;;;;5093361;28;20527;-77
2022/11/27 10:38:17;;;;;;;57.53;27.85;;;5.70;99.90;;;;;;5090815;28;20038;-77
2022/11/27 10:41:09;;;;;;;50.20;23.60;;;5.70;99.90;;;;;;5084997;28;20040;-76
2022/11/27 10:43:35;;;;;;;91.90;32.55;;;5.70;99.90;;;;;;5089695;28;20470;-76
2022/11/27 10:46:03;;;;;;;;;;;5.70;99.90;;;;;;5089005;28;20470;-76
2022/11/27 10:48:29;;;;;;;41.13;20.45;;;5.70;99.90;;;;;;5089478;28;19908;-76
2022/11/27 10:50:55;;;;;;;;;;;5.60;99.90;;;;;;5090511;28;20034;-76
2022/11/27 10:53:21;;;;;;;28.52;16.45;;;5.70;99.90;;;;;;5088852;28;19908;-77
2022/11/27 10:56:05;;;;;;;;;;;5.60;99.90;;;;;;5089436;28;20024;-76
2022/11/27 10:58:30;;;;;;;71.20;25.08;;;5.60;99.90;;;;;;5089187;28;20435;-77
2022/11/27 11:01:04;;;;;;;;;;;5.60;99.90;;;;;;5089326;28;20032;-76
2022/11/27 11:03:30;;;;;;;79.68;30.58;;;5.60;99.90;;;;;;5088273;28;20402;-76
2022/11/27 11:05:57;;;;;;;;;;;5.60;99.90;;;;;;5090415;28;20039;-77
2022/11/27 11:08:24;;;;;;;38.45;19.77;;;5.60;99.90;;;;;;5089286;28;19915;-78
2022/11/27 11:10:51;;;;;;;80.65;38.60;;;5.60;99.90;;;;;;5088802;28;20032;-76
2022/11/27 11:13:20;;;;;;;45.55;24.80;;;5.60;99.90;;;;;;5089924;28;20020;-77
2022/11/27 11:15:50;;;;;;;32.78;20.10;;;5.60;99.90;;;;;;5088428;28;20040;-76
2022/11/27 11:18:17;;;;;;;30.42;17.65;;;5.60;99.90;;;;;;5088221;28;20030;-77
2022/11/27 11:20:47;;;;;;;30.95;18.80;;;5.60;99.90;;;;;;5089573;28;20028;-76
2022/11/27 11:23:25;;;;;;;31.30;17.60;;;5.60;99.90;;;;;;5088867;28;20023;-77
2022/11/27 11:25:54;;;;;;;40.67;20.33;;;5.70;99.90;;;;;;5088257;28;20036;-77
2022/11/27 11:28:21;;;;;;;89.72;35.85;;;5.60;99.90;;;;;;5087988;28;20020;-77
2022/11/27 11:31:14;;;;;;;104.93;40.72;;;5.60;99.90;;;;;;5089381;28;20028;-77
2022/11/27 11:33:51;;;;;;;84.68;38.70;;;5.60;99.90;;;;;;5086076;28;20047;-77
2022/11/27 11:36:16;;;;;;;;;;;5.60;99.90;;;;;;5090246;28;20104;-77
2022/11/27 11:38:45;;;;;;;197.52;97.13;;;5.70;99.90;;;;;;5088617;28;19961;-77
2022/11/27 11:41:12;;;;;;;150.23;82.82;;;5.60;99.90;;;;;;5087567;28;20121;-76
2022/11/27 11:43:38;;;;;;;63.20;33.88;;;5.60;99.90;;;;;;5087658;28;20102;-76
2022/11/27 11:46:23;;;;;;;;;;;5.70;99.90;;;;;;5087884;28;20039;-77
2022/11/27 11:48:55;;;;;;;42.47;24.08;;;5.50;99.90;;;;;;5089071;28;20392;-76
2022/11/27 11:51:52;;;;;;;71.32;32.20;;;5.60;99.90;;;;;;5090565;28;20077;-76
2022/11/27 11:54:49;;;;;;;56.47;27.88;;;5.60;99.90;;;;;;5080236;28;20100;-76
2022/11/27 11:57:40;;;;;;;58.83;25.38;;;5.50;99.90;;;;;;5088485;28;20036;-77
2022/11/27 12:00:11;;;;;;;82.40;35.28;;;5.60;99.90;;;;;;5088378;28;20401;-76
2022/11/27 12:02:49;;;;;;;76.32;35.30;;;5.60;99.90;;;;;;5089772;28;20028;-76
2022/11/27 12:06:11;;;;;;;65.43;31.38;;;5.60;99.90;;;;;;5088510;28;20036;-77
2022/11/27 12:08:59;;;;;;;50.80;24.60;;;5.60;99.90;;;;;;5050597;28;20432;-77
2022/11/27 12:11:50;;;;;;;55.17;27.23;;;5.70;99.90;;;;;;5050045;28;20056;-76
2022/11/27 12:14:37;;;;;;;44.72;24.77;;;5.60;99.90;;;;;;5078923;28;20416;-77
2022/11/27 12:17:22;;;;;;;;;;;5.60;99.90;;;;;;5089781;28;20547;-77
2022/11/27 12:20:03;;;;;;;52.97;24.58;;;5.60;99.90;;;;;;5090792;28;19915;-77
2022/11/27 12:23:08;;;;;;;185.80;67.13;;;5.60;99.90;;;;;;5091445;28;20485;-76
2022/11/27 12:25:54;;;;;;;62.47;29.85;;;5.70;99.90;;;;;;5088819;28;20047;-76
2022/11/27 12:28:51;;;;;;;66.38;30.50;;;5.60;99.90;;;;;;5090487;28;20019;-77
2022/11/27 12:31:27;;;;;;;65.47;29.67;;;5.50;99.90;;;;;;5090697;28;20089;-76
2022/11/27 12:33:59;;;;;;;47.85;25.80;;;5.60;99.90;;;;;;5089313;28;20573;-76
2022/11/27 12:36:41;;;;;;;45.92;21.02;;;5.50;99.90;;;;;;5089338;28;20042;-76
2022/11/27 12:39:32;;;;;;;40.50;20.02;;;5.50;99.90;;;;;;5089242;28;20500;-77
2022/11/27 12:42:16;;;;;;;43.45;20.45;;;5.60;99.90;;;;;;5090120;28;20912;-78
2022/11/27 12:44:52;;;;;;;46.67;23.40;;;5.60;99.90;;;;;;5089947;28;20031;-77
2022/11/27 12:47:25;;;;;;;57.40;24.63;;;5.50;99.90;;;;;;5090659;28;20103;-76
2022/11/27 12:50:01;;;;;;;59.70;25.75;;;5.50;99.90;;;;;;5091656;28;20024;-77
2022/11/27 12:52:37;;;;;;;54.90;24.95;;;5.50;99.90;;;;;;5090491;28;20418;-77
2022/11/27 12:55:11;;;;;;;50.47;24.05;;;5.60;99.90;;;;;;5089827;28;20051;-77
2022/11/27 12:57:43;;;;;;;54.95;23.85;;;5.60;99.90;;;;;;5089503;28;20105;-77
2022/11/27 13:00:20;;;;;;;50.53;24.77;;;5.50;99.90;;;;;;5091276;28;20020;-77
2022/11/27 13:03:15;;;;;;;49.75;22.05;;;5.50;99.90;;;;;;5086476;28;20032;-78
2022/11/27 13:05:50;;;;;;;41.13;20.58;;;5.50;99.90;;;;;;5081069;28;20474;-77
2022/11/27 13:08:34;;;;;;;47.33;27.85;;;5.60;99.90;;;;;;5087536;28;20437;-76
2022/11/27 13:11:05;;;;;;;44.00;26.25;;;5.60;99.90;;;;;;5087703;28;20552;-76
2022/11/27 13:13:39;;;;;;;47.50;28.25;;;5.50;99.90;;;;;;5086729;28;20038;-76
2022/11/27 13:16:17;;;;;;;148.98;68.60;;;5.50;99.90;;;;;;5086211;28;20028;-76
2022/11/27 13:19:04;;;;;;;59.50;25.45;;;5.60;99.90;;;;;;5088169;28;20054;-76